Beverly, West Virginia
Current Conditions -  °F | °C
As of 7:51 AM on Monday 22 Dec 2014 (Local Time) from KEKN Reporting Station
Haze Haze  
Wind Chill: 25°   Ceiling: 8000
Heat Index: 25°   Visibility: 6mi
Dew Point: 24°   Wind: 0mph
Humidity: 96%   Direction: NA
Pressure: 30.12"   Gusts: NA
Location:  38.84°N, 79.88°W
Report Text: KEKN 221251Z AUTO 00000KT 6SM BR SCT037 OVC080 M04/M04 A3012 RMK AO2 SLP231 T10391044 TSNO
Loading
Personal Weather Stations






























Interactive Weather Map New forecast layout! Learn more

10-Day Weather Forecast

Advertisements
Track Severe Weather on mobile